Relevés horaires Grono (Suisse)


Relevés horaires à Grono - Jeudi 20 Sept. 2018
Heure UTC1 Température [°C] Vent [km/h] Hum. [%] Pres.4 [hPa] Visi. [Km] Nébu. [octa] Préc.5 [mm] Cond.
2m. Res. Ros. Dir.2 Vit. Moy. Raf.3
23:00 16.4 16.4 15.9 N 5.6 -- -- 97 1019.4 -- -- -- --
22:00 16.8 16.8 16.2 N 1.9 -- -- 96 1019.5 -- -- -- --
21:00 17.1 17.1 16.2 N 3.7 -- 7.4 94 1019.4(0.9/3h) -- -- -- --
20:00 18.0 18.0 16.8 N 5.6 -- -- 93 1019.1 -- -- -- --
19:00 18.7 18.7 17.3 NNO 3.7 -- -- 92 1018.7 -- -- -- --
18:00 20.0 20.0 17.6 NE 1.9 -- 24.1 86 1018(0.8/3h) -- -- 0/12h
--
17:00 22.1 22.1 17.8 N 7.4 -- -- 77 1017.2 -- -- -- --
16:00 26.3 26.3 16.7 S 9.3 -- -- 56 1016.3 -- -- -- --
15:00 26.9 26.9 16.5 SSE 13.0 -- 24.1 53 1016.3(-1.6/3h) -- -- -- --
14:00 27.3 27.3 16.6 S 9.3 -- -- 52 1016.6 -- -- -- --
13:00 26.9 26.9 16.3 S 11.1 -- -- 52 1017.4 -- -- -- --
12:00 26.0 26.0 15.5 S 7.4 -- 13.0 52 1018.1(-2.0/3h) -- -- 0/6h
--
11:00 24.0 24.0 12.7 S 5.6 -- -- 49 1018.8 -- -- -- --
10:00 21.6 21.6 13.6 S 5.6 -- -- 60 1020 -- -- -- --
09:00 16.8 16.8 14.4 SE 0.0 -- 11.1 86 1021.4 -- -- -- --
08:00 13.7 13.5 12.4 N 7.4 -- -- 92 1022.2 -- -- -- --
07:00 13.1 13.1 12.1 NE 1.9 -- -- 94 1022.6 -- -- -- --
06:00 13.3 13.3 12.4 N 5.6 -- 11.1 94 1022.3(0.2/3h) -- -- 0/12h
0/24h
--
05:00 13.0 13 12.1 N 5.6 -- -- 94 1022.2 -- -- -- --
04:00 13.8 13.8 13.1 NNO 5.6 -- -- 96 1021.9 -- -- -- --
03:00 13.8 13.8 12.8 N 5.6 -- 11.1 94 1022(-0.2/3h) -- -- -- --
02:00 14.7 14.7 13.9 N 5.6 -- -- 95 1022 -- -- -- --
01:00 15.1 15.1 14.1 N 5.6 -- -- 94 1021.9 -- -- -- --
00:00 15.5 15.5 14.7 N 5.6 -- 13.0 95 1022(-0.1/3h) -- -- 0/6h
--

1 Coordinated Universal Time. Actuellement il est 19:00 locale et 17:00 UTC.

2 Le vent souffle depuis la direction indiquée vers la direction oposée.

3 Les rafales max. sont disponible 40 min après l'heure du relevé.

4 Pour les stations d'altitude (plus de 600m) le géopotentiel du niveau le plus proche de la pression obligatoire est indiqué.

5 Les stations disposant d'un diffuseur peuvent indiquer "trace". Cela signifie que des précipitations ont touchés le sol mais que la quantité est inférieure à 0.1 mm.

Récapitulatif de la journée
Température [°C] Vent [km/h] Ensoleillement4 [h] Precipitations totale5 [mm] Pression [Hpa]
Min1 Max.2 Moy.3 Max. Min Max.
12.7 27.3 0 24.1 7 h 42 min 0 1016.3 1022.6

1 Température minimale relevée entre 18:00 UTC la veille et 18:00 UTC le jour donné.

2 Température maximale relevée entre 06:00 UTC le jour donné et 06:00 UTC le lendemain.

3 Vent moyen de la journée basé sur les relevés horaires.

4 Ensoleillement en heures relevé entre 06:00 UTC la veille et 06:00 UTC le jour donné.

5 Précipitations totales tombées entre 06:00 UTC la jour donné et 06:00 UTC le lendemain.

Graphiques horaires